»·PEaware :: DAL8965 KSMF-KFAT

DAL8965 :: KSMF-KFAT

FLIGHT INFORMATION

Flight Status: Arrived
Operator:
Delta Air Lines
More flights by this operator :: More flights under this callsign
Pilot: Ulrik N. (13596)
Aircraft: BOEING 737-800
(B738)
More flights by this aircraft type
Origin: KSMF Sacramento Intl
United States
Destination: KFAT Fresno Yosemite Intl
United States
More flights between these airports :: More routes between these airports
Route: SAC V23 CZQ
File this flight plan on PilotEdge
Remarks:
Altitude:
(Current/Filed)
25,000ft
Speed:
(Current/Filed)
380kts
Departed: 31-May-18 10:09 PM
Arrived: 31-May-18 10:46 PM
Distance/Time
Traveled:
146nm/0:37
Distance/Time
To Go:
Arrived

Flight Plot

Page will automatically refresh every two minutes.


Map Options




Map Legend


Flown Route
Filed Route
Departure Airport
Arrival Airport
Navaid (VOR, NDB)
Fix

Horizontal Profiles

Position Reports

Time Latitude Longitude Heading Altitude Ground
Speed
31-May-18 21:49 38.696297 -121.594094 180 28ft 0kts
31-May-18 21:50 38.696297 -121.594094 180 28ft 0kts
31-May-18 21:51 38.696297 -121.594094 180 28ft 0kts
31-May-18 21:52 38.696297 -121.594094 180 28ft 0kts
31-May-18 21:53 38.696297 -121.594094 180 28ft 0kts
31-May-18 21:54 38.696297 -121.594094 180 28ft 0kts
31-May-18 21:55 38.696297 -121.594094 180 28ft 0kts
31-May-18 21:56 38.696297 -121.594094 180 28ft 0kts
31-May-18 21:57 38.696297 -121.594094 180 28ft 0kts
31-May-18 21:58 38.696298 -121.594094 180 28ft 0kts
31-May-18 21:59 38.696298 -121.594094 180 28ft 0kts
31-May-18 22:00 38.696298 -121.594094 180 28ft 0kts
31-May-18 22:01 38.696522 -121.594089 180 28ft 2kts
31-May-18 22:02 38.696990 -121.593850 267 28ft 0kts
31-May-18 22:03 38.696985 -121.593748 269 28ft 0kts
31-May-18 22:04 38.696985 -121.593748 269 28ft 0kts
31-May-18 22:05 38.696989 -121.594990 270 28ft 11kts
31-May-18 22:06 38.698322 -121.598602 0 28ft 14kts
31-May-18 22:07 38.704283 -121.598501 0 28ft 25kts
31-May-18 22:08 38.707208 -121.599621 273 28ft 9kts
31-May-18 22:09 38.694666 -121.601266 181 30ft 150kts
31-May-18 22:10 38.644279 -121.621681 193 1557ft 233kts
31-May-18 22:11 38.590953 -121.572015 133 3089ft 267kts
31-May-18 22:12 38.541365 -121.498611 132 6404ft 285kts
31-May-18 22:13 38.485531 -121.422512 141 9406ft 304kts
31-May-18 22:14 38.415985 -121.350575 140 11734ft 343kts
31-May-18 22:15 38.340076 -121.272468 141 14568ft 363kts
31-May-18 22:16 38.259484 -121.189750 141 17346ft 383kts
31-May-18 22:17 38.175470 -121.103705 143 20043ft 396kts
31-May-18 22:18 38.086997 -121.013512 144 21050ft 432kts
31-May-18 22:19 37.993865 -120.918818 145 21039ft 426kts
31-May-18 22:20 37.901038 -120.824819 145 21031ft 427kts
31-May-18 22:21 37.808770 -120.731707 145 21030ft 428kts
31-May-18 22:22 37.715571 -120.637971 145 21027ft 428kts
31-May-18 22:23 37.622623 -120.544797 145 21024ft 428kts
31-May-18 22:24 37.529701 -120.451961 145 21022ft 428kts
31-May-18 22:25 37.437427 -120.360009 145 20999ft 407kts
31-May-18 22:26 37.353246 -120.276220 146 20989ft 366kts
31-May-18 22:27 37.276284 -120.199886 146 19736ft 347kts
31-May-18 22:28 37.197380 -120.122118 145 17024ft 377kts
31-May-18 22:29 37.119863 -120.045716 144 13971ft 340kts
31-May-18 22:30 37.044098 -119.971382 143 11376ft 350kts
31-May-18 22:31 36.970735 -119.899694 142 10333ft 313kts
31-May-18 22:32 36.904393 -119.835390 142 9951ft 306kts
31-May-18 22:33 36.841059 -119.774199 143 8868ft 288kts
31-May-18 22:34 36.780088 -119.715423 143 7540ft 259kts
31-May-18 22:35 36.727247 -119.664571 143 6319ft 223kts
31-May-18 22:36 36.681154 -119.620296 144 5245ft 195kts
31-May-18 22:37 36.637290 -119.578339 144 4482ft 197kts
31-May-18 22:38 36.594395 -119.536081 142 3531ft 197kts
31-May-18 22:39 36.562203 -119.551153 296 2642ft 166kts
31-May-18 22:40 36.605423 -119.557228 1 2011ft 169kts
31-May-18 22:41 36.644432 -119.583731 321 1879ft 161kts
31-May-18 22:42 36.679853 -119.617455 318 1784ft 159kts
31-May-18 22:43 36.714622 -119.651981 318 1806ft 160kts
31-May-18 22:44 36.745152 -119.683339 318 902ft 131kts
31-May-18 22:45 36.771384 -119.711927 303 356ft 120kts
31-May-18 22:46 36.775761 -119.723163 210 335ft 19kts
31-May-18 22:47 36.773591 -119.720942 127 335ft 19kts
31-May-18 22:48 36.771911 -119.719143 126 335ft 5kts
31-May-18 22:49 36.771841 -119.719021 126 335ft 0kts
31-May-18 22:50 36.771841 -119.719021 126 335ft 0kts

Navigation Log

Ident Type
Flight plan parsing failed, navigation log unavailable